sensor_id;sensor_type;location;lat;lon;timestamp;P1;durP1;ratioP1;P2;durP2;ratioP2
23712;SDS011;12035;49.978;8.298;2022-11-18T00:01:30;5.65;;;2.42;;
23712;SDS011;12035;49.978;8.298;2022-11-18T00:06:28;4.80;;;2.28;;
23712;SDS011;12035;49.978;8.298;2022-11-18T00:11:25;3.75;;;2.10;;
23712;SDS011;12035;49.978;8.298;2022-11-18T00:16:41;6.15;;;2.42;;
23712;SDS011;12035;49.978;8.298;2022-11-18T00:21:38;4.72;;;2.25;;
23712;SDS011;12035;49.978;8.298;2022-11-18T00:26:35;4.28;;;2.38;;
23712;SDS011;12035;49.978;8.298;2022-11-18T00:31:33;5.15;;;2.92;;
23712;SDS011;12035;49.978;8.298;2022-11-18T00:36:32;3.97;;;2.25;;
23712;SDS011;12035;49.978;8.298;2022-11-18T00:41:29;5.35;;;2.63;;
23712;SDS011;12035;49.978;8.298;2022-11-18T00:46:40;4.70;;;2.60;;
23712;SDS011;12035;49.978;8.298;2022-11-18T00:51:39;6.10;;;2.60;;
23712;SDS011;12035;49.978;8.298;2022-11-18T00:56:36;4.82;;;2.25;;
23712;SDS011;12035;49.978;8.298;2022-11-18T01:01:33;3.20;;;1.88;;
23712;SDS011;12035;49.978;8.298;2022-11-18T01:06:31;6.18;;;2.63;;
23712;SDS011;12035;49.978;8.298;2022-11-18T01:11:29;5.18;;;2.67;;
23712;SDS011;12035;49.978;8.298;2022-11-18T01:16:43;5.20;;;2.83;;
23712;SDS011;12035;49.978;8.298;2022-11-18T01:21:45;9.88;;;2.67;;
23712;SDS011;12035;49.978;8.298;2022-11-18T01:26:44;4.38;;;2.40;;
23712;SDS011;12035;49.978;8.298;2022-11-18T01:31:41;6.47;;;2.92;;
23712;SDS011;12035;49.978;8.298;2022-11-18T01:36:38;5.30;;;2.60;;
23712;SDS011;12035;49.978;8.298;2022-11-18T01:41:35;5.03;;;2.75;;
23712;SDS011;12035;49.978;8.298;2022-11-18T01:46:34;4.53;;;2.33;;
23712;SDS011;12035;49.978;8.298;2022-11-18T01:51:31;7.43;;;2.75;;
23712;SDS011;12035;49.978;8.298;2022-11-18T01:56:33;4.55;;;2.55;;
23712;SDS011;12035;49.978;8.298;2022-11-18T02:01:39;5.93;;;2.38;;
23712;SDS011;12035;49.978;8.298;2022-11-18T02:06:36;5.85;;;2.85;;
23712;SDS011;12035;49.978;8.298;2022-11-18T02:11:34;4.30;;;2.53;;
23712;SDS011;12035;49.978;8.298;2022-11-18T02:16:54;4.28;;;2.63;;
23712;SDS011;12035;49.978;8.298;2022-11-18T02:22:02;5.45;;;2.78;;
23712;SDS011;12035;49.978;8.298;2022-11-18T02:27:19;5.78;;;2.50;;
23712;SDS011;12035;49.978;8.298;2022-11-18T02:32:57;6.13;;;2.92;;
23712;SDS011;12035;49.978;8.298;2022-11-18T02:38:04;5.05;;;2.60;;
23712;SDS011;12035;49.978;8.298;2022-11-18T02:43:05;7.30;;;2.85;;
23712;SDS011;12035;49.978;8.298;2022-11-18T02:48:09;8.93;;;4.00;;
23712;SDS011;12035;49.978;8.298;2022-11-18T02:53:09;8.20;;;4.82;;
23712;SDS011;12035;49.978;8.298;2022-11-18T02:58:09;11.80;;;5.47;;
23712;SDS011;12035;49.978;8.298;2022-11-18T03:03:24;7.60;;;3.80;;
23712;SDS011;12035;49.978;8.298;2022-11-18T03:08:24;8.30;;;3.92;;
23712;SDS011;12035;49.978;8.298;2022-11-18T03:13:29;6.68;;;3.65;;
23712;SDS011;12035;49.978;8.298;2022-11-18T03:18:35;6.45;;;3.40;;
23712;SDS011;12035;49.978;8.298;2022-11-18T03:23:39;5.93;;;3.28;;
23712;SDS011;12035;49.978;8.298;2022-11-18T03:28:41;8.13;;;2.95;;
23712;SDS011;12035;49.978;8.298;2022-11-18T03:33:46;6.32;;;3.13;;
23712;SDS011;12035;49.978;8.298;2022-11-18T03:38:49;6.68;;;3.40;;
23712;SDS011;12035;49.978;8.298;2022-11-18T03:43:52;6.70;;;2.80;;
23712;SDS011;12035;49.978;8.298;2022-11-18T03:48:55;5.75;;;2.97;;
23712;SDS011;12035;49.978;8.298;2022-11-18T03:53:55;5.35;;;2.88;;
23712;SDS011;12035;49.978;8.298;2022-11-18T03:58:59;7.50;;;3.15;;
23712;SDS011;12035;49.978;8.298;2022-11-18T04:04:04;4.90;;;2.78;;
23712;SDS011;12035;49.978;8.298;2022-11-18T04:09:02;4.60;;;2.67;;
23712;SDS011;12035;49.978;8.298;2022-11-18T04:14:06;3.67;;;2.10;;
23712;SDS011;12035;49.978;8.298;2022-11-18T04:19:06;4.03;;;2.30;;
23712;SDS011;12035;49.978;8.298;2022-11-18T04:24:03;6.28;;;2.63;;
23712;SDS011;12035;49.978;8.298;2022-11-18T04:29:01;7.85;;;2.53;;
23712;SDS011;12035;49.978;8.298;2022-11-18T04:33:58;5.10;;;2.38;;
23712;SDS011;12035;49.978;8.298;2022-11-18T04:38:57;6.55;;;2.72;;
23712;SDS011;12035;49.978;8.298;2022-11-18T04:43:54;6.70;;;3.05;;
23712;SDS011;12035;49.978;8.298;2022-11-18T04:48:51;5.78;;;3.03;;
23712;SDS011;12035;49.978;8.298;2022-11-18T04:58:46;4.03;;;2.40;;
23712;SDS011;12035;49.978;8.298;2022-11-18T05:03:44;4.63;;;2.78;;
23712;SDS011;12035;49.978;8.298;2022-11-18T05:08:41;5.80;;;3.47;;
23712;SDS011;12035;49.978;8.298;2022-11-18T05:13:38;5.05;;;2.38;;
23712;SDS011;12035;49.978;8.298;2022-11-18T05:18:37;4.97;;;3.28;;
23712;SDS011;12035;49.978;8.298;2022-11-18T05:23:34;6.57;;;3.63;;
23712;SDS011;12035;49.978;8.298;2022-11-18T05:28:31;5.53;;;3.58;;
23712;SDS011;12035;49.978;8.298;2022-11-18T05:33:29;6.57;;;3.65;;
23712;SDS011;12035;49.978;8.298;2022-11-18T05:43:25;5.43;;;3.65;;
23712;SDS011;12035;49.978;8.298;2022-11-18T05:48:23;6.38;;;3.35;;
23712;SDS011;12035;49.978;8.298;2022-11-18T05:53:21;4.90;;;3.42;;
23712;SDS011;12035;49.978;8.298;2022-11-18T05:58:21;5.75;;;3.70;;
23712;SDS011;12035;49.978;8.298;2022-11-18T06:03:19;4.32;;;2.72;;
23712;SDS011;12035;49.978;8.298;2022-11-18T06:08:20;6.35;;;3.88;;
23712;SDS011;12035;49.978;8.298;2022-11-18T06:13:22;7.35;;;4.13;;
23712;SDS011;12035;49.978;8.298;2022-11-18T06:18:24;8.70;;;4.25;;
23712;SDS011;12035;49.978;8.298;2022-11-18T06:23:24;6.70;;;3.80;;
23712;SDS011;12035;49.978;8.298;2022-11-18T06:28:25;6.40;;;4.05;;
23712;SDS011;12035;49.978;8.298;2022-11-18T06:33:23;5.88;;;3.95;;
23712;SDS011;12035;49.978;8.298;2022-11-18T06:38:22;7.32;;;3.85;;
23712;SDS011;12035;49.978;8.298;2022-11-18T06:43:20;6.80;;;3.55;;
23712;SDS011;12035;49.978;8.298;2022-11-18T06:48:37;7.22;;;3.65;;
23712;SDS011;12035;49.978;8.298;2022-11-18T06:53:34;5.65;;;3.60;;
23712;SDS011;12035;49.978;8.298;2022-11-18T06:58:32;5.47;;;2.95;;
23712;SDS011;12035;49.978;8.298;2022-11-18T07:03:30;4.80;;;2.42;;
23712;SDS011;12035;49.978;8.298;2022-11-18T07:08:29;4.10;;;2.15;;
23712;SDS011;12035;49.978;8.298;2022-11-18T07:13:28;4.55;;;2.15;;
23712;SDS011;12035;49.978;8.298;2022-11-18T07:18:25;4.20;;;2.20;;
23712;SDS011;12035;49.978;8.298;2022-11-18T07:23:22;4.43;;;1.88;;
23712;SDS011;12035;49.978;8.298;2022-11-18T07:28:21;3.67;;;1.70;;
23712;SDS011;12035;49.978;8.298;2022-11-18T07:33:18;2.78;;;1.50;;
23712;SDS011;12035;49.978;8.298;2022-11-18T07:38:16;3.50;;;1.75;;
23712;SDS011;12035;49.978;8.298;2022-11-18T07:43:13;5.53;;;1.80;;
23712;SDS011;12035;49.978;8.298;2022-11-18T07:48:12;4.03;;;1.40;;
23712;SDS011;12035;49.978;8.298;2022-11-18T07:53:10;3.80;;;1.40;;
23712;SDS011;12035;49.978;8.298;2022-11-18T07:58:08;3.22;;;1.10;;
23712;SDS011;12035;49.978;8.298;2022-11-18T08:03:05;2.28;;;1.15;;
23712;SDS011;12035;49.978;8.298;2022-11-18T08:08:04;2.22;;;1.10;;
23712;SDS011;12035;49.978;8.298;2022-11-18T08:13:01;3.35;;;1.15;;
23712;SDS011;12035;49.978;8.298;2022-11-18T08:17:58;2.65;;;1.10;;
23712;SDS011;12035;49.978;8.298;2022-11-18T08:22:55;4.15;;;1.15;;
23712;SDS011;12035;49.978;8.298;2022-11-18T08:27:54;2.70;;;1.10;;
23712;SDS011;12035;49.978;8.298;2022-11-18T08:32:51;2.67;;;1.13;;
23712;SDS011;12035;49.978;8.298;2022-11-18T08:37:49;3.35;;;1.02;;
23712;SDS011;12035;49.978;8.298;2022-11-18T08:42:47;3.47;;;1.05;;
23712;SDS011;12035;49.978;8.298;2022-11-18T08:47:45;2.30;;;0.90;;
23712;SDS011;12035;49.978;8.298;2022-11-18T08:52:42;3.17;;;1.00;;
23712;SDS011;12035;49.978;8.298;2022-11-18T08:57:41;3.13;;;0.80;;
23712;SDS011;12035;49.978;8.298;2022-11-18T09:02:41;1.25;;;0.73;;
23712;SDS011;12035;49.978;8.298;2022-11-18T09:07:40;0.93;;;0.55;;
23712;SDS011;12035;49.978;8.298;2022-11-18T09:12:37;1.10;;;0.60;;
23712;SDS011;12035;49.978;8.298;2022-11-18T09:17:51;1.33;;;0.80;;
23712;SDS011;12035;49.978;8.298;2022-11-18T09:22:53;1.17;;;0.40;;
23712;SDS011;12035;49.978;8.298;2022-11-18T09:27:51;1.33;;;0.60;;
23712;SDS011;12035;49.978;8.298;2022-11-18T09:32:49;2.17;;;0.73;;
23712;SDS011;12035;49.978;8.298;2022-11-18T09:37:46;2.22;;;0.70;;
23712;SDS011;12035;49.978;8.298;2022-11-18T09:42:49;2.70;;;0.77;;
23712;SDS011;12035;49.978;8.298;2022-11-18T09:47:54;2.08;;;0.80;;
23712;SDS011;12035;49.978;8.298;2022-11-18T09:52:58;1.50;;;0.70;;
23712;SDS011;12035;49.978;8.298;2022-11-18T09:58:05;2.63;;;0.90;;
23712;SDS011;12035;49.978;8.298;2022-11-18T10:03:10;1.98;;;0.77;;
23712;SDS011;12035;49.978;8.298;2022-11-18T10:08:14;1.05;;;0.60;;
23712;SDS011;12035;49.978;8.298;2022-11-18T10:18:30;2.47;;;0.88;;
23712;SDS011;12035;49.978;8.298;2022-11-18T10:23:44;1.27;;;0.50;;
23712;SDS011;12035;49.978;8.298;2022-11-18T10:28:49;1.90;;;0.70;;
23712;SDS011;12035;49.978;8.298;2022-11-18T10:33:46;3.35;;;0.80;;
23712;SDS011;12035;49.978;8.298;2022-11-18T10:39:07;2.92;;;1.05;;
23712;SDS011;12035;49.978;8.298;2022-11-18T10:44:24;2.03;;;0.80;;
23712;SDS011;12035;49.978;8.298;2022-11-18T10:49:36;1.05;;;0.73;;
23712;SDS011;12035;49.978;8.298;2022-11-18T10:54:34;1.88;;;0.95;;
23712;SDS011;12035;49.978;8.298;2022-11-18T10:59:33;1.65;;;0.60;;
23712;SDS011;12035;49.978;8.298;2022-11-18T11:04:35;1.88;;;0.90;;
23712;SDS011;12035;49.978;8.298;2022-11-18T11:09:33;1.67;;;0.80;;
23712;SDS011;12035;49.978;8.298;2022-11-18T11:14:33;2.97;;;0.85;;
23712;SDS011;12035;49.978;8.298;2022-11-18T11:19:47;4.88;;;0.90;;
23712;SDS011;12035;49.978;8.298;2022-11-18T11:24:52;2.50;;;0.90;;
23712;SDS011;12035;49.978;8.298;2022-11-18T11:29:58;2.08;;;0.70;;
23712;SDS011;12035;49.978;8.298;2022-11-18T11:35:15;2.90;;;0.80;;
23712;SDS011;12035;49.978;8.298;2022-11-18T11:40:19;2.17;;;0.70;;
23712;SDS011;12035;49.978;8.298;2022-11-18T11:45:26;1.73;;;0.70;;
23712;SDS011;12035;49.978;8.298;2022-11-18T11:50:32;2.05;;;0.80;;
23712;SDS011;12035;49.978;8.298;2022-11-18T11:55:52;4.75;;;2.10;;
23712;SDS011;12035;49.978;8.298;2022-11-18T12:01:03;1.73;;;0.85;;
23712;SDS011;12035;49.978;8.298;2022-11-18T12:06:14;1.05;;;0.60;;
23712;SDS011;12035;49.978;8.298;2022-11-18T12:11:12;2.33;;;0.60;;
23712;SDS011;12035;49.978;8.298;2022-11-18T12:16:20;1.17;;;0.70;;
23712;SDS011;12035;49.978;8.298;2022-11-18T12:26:52;1.23;;;0.52;;
23712;SDS011;12035;49.978;8.298;2022-11-18T12:31:51;2.25;;;0.50;;
23712;SDS011;12035;49.978;8.298;2022-11-18T12:36:50;3.20;;;0.70;;
23712;SDS011;12035;49.978;8.298;2022-11-18T12:41:52;1.95;;;0.60;;
23712;SDS011;12035;49.978;8.298;2022-11-18T12:47:10;3.83;;;0.80;;
23712;SDS011;12035;49.978;8.298;2022-11-18T12:57:46;2.92;;;0.80;;
23712;SDS011;12035;49.978;8.298;2022-11-18T13:02:50;2.00;;;0.50;;
23712;SDS011;12035;49.978;8.298;2022-11-18T13:07:50;2.92;;;0.90;;
23712;SDS011;12035;49.978;8.298;2022-11-18T13:13:12;3.03;;;0.68;;
23712;SDS011;12035;49.978;8.298;2022-11-18T13:18:22;3.85;;;1.02;;
23712;SDS011;12035;49.978;8.298;2022-11-18T13:23:23;3.60;;;0.52;;
23712;SDS011;12035;49.978;8.298;2022-11-18T13:28:42;3.70;;;0.88;;
23712;SDS011;12035;49.978;8.298;2022-11-18T13:33:52;3.38;;;0.57;;
23712;SDS011;12035;49.978;8.298;2022-11-18T13:38:58;2.40;;;0.60;;
23712;SDS011;12035;49.978;8.298;2022-11-18T13:44:11;3.78;;;0.80;;
23712;SDS011;12035;49.978;8.298;2022-11-18T13:49:16;2.95;;;1.08;;
23712;SDS011;12035;49.978;8.298;2022-11-18T13:54:18;1.75;;;0.57;;
23712;SDS011;12035;49.978;8.298;2022-11-18T13:59:19;3.33;;;0.88;;
23712;SDS011;12035;49.978;8.298;2022-11-18T14:04:20;1.92;;;0.50;;
23712;SDS011;12035;49.978;8.298;2022-11-18T14:09:21;3.28;;;0.80;;
23712;SDS011;12035;49.978;8.298;2022-11-18T14:14:26;1.98;;;0.60;;
23712;SDS011;12035;49.978;8.298;2022-11-18T14:19:28;3.22;;;0.68;;
23712;SDS011;12035;49.978;8.298;2022-11-18T14:24:27;3.17;;;0.70;;
23712;SDS011;12035;49.978;8.298;2022-11-18T14:29:24;3.42;;;0.60;;
23712;SDS011;12035;49.978;8.298;2022-11-18T14:34:22;3.20;;;0.90;;
23712;SDS011;12035;49.978;8.298;2022-11-18T14:39:23;3.15;;;0.80;;
23712;SDS011;12035;49.978;8.298;2022-11-18T14:44:23;4.55;;;1.35;;
23712;SDS011;12035;49.978;8.298;2022-11-18T14:49:23;2.60;;;1.10;;
23712;SDS011;12035;49.978;8.298;2022-11-18T14:54:23;2.85;;;0.80;;
23712;SDS011;12035;49.978;8.298;2022-11-18T14:59:21;2.83;;;0.60;;
23712;SDS011;12035;49.978;8.298;2022-11-18T15:04:18;2.33;;;0.75;;
23712;SDS011;12035;49.978;8.298;2022-11-18T15:09:16;3.03;;;0.82;;
23712;SDS011;12035;49.978;8.298;2022-11-18T15:14:15;3.83;;;0.95;;
23712;SDS011;12035;49.978;8.298;2022-11-18T15:19:13;2.45;;;0.60;;
23712;SDS011;12035;49.978;8.298;2022-11-18T15:24:11;1.15;;;0.50;;
23712;SDS011;12035;49.978;8.298;2022-11-18T15:29:11;3.10;;;0.90;;
23712;SDS011;12035;49.978;8.298;2022-11-18T15:34:14;3.53;;;0.80;;
23712;SDS011;12035;49.978;8.298;2022-11-18T15:39:13;4.97;;;0.90;;
23712;SDS011;12035;49.978;8.298;2022-11-18T15:44:11;5.35;;;1.35;;
23712;SDS011;12035;49.978;8.298;2022-11-18T15:49:11;3.38;;;0.70;;
23712;SDS011;12035;49.978;8.298;2022-11-18T15:54:11;3.72;;;1.20;;
23712;SDS011;12035;49.978;8.298;2022-11-18T15:59:09;2.50;;;0.80;;
23712;SDS011;12035;49.978;8.298;2022-11-18T16:04:08;3.67;;;1.00;;
23712;SDS011;12035;49.978;8.298;2022-11-18T16:09:10;1.95;;;0.70;;
23712;SDS011;12035;49.978;8.298;2022-11-18T16:14:10;3.42;;;1.00;;
23712;SDS011;12035;49.978;8.298;2022-11-18T16:19:09;2.63;;;0.68;;
23712;SDS011;12035;49.978;8.298;2022-11-18T16:24:10;4.25;;;0.80;;
23712;SDS011;12035;49.978;8.298;2022-11-18T16:29:10;5.03;;;1.00;;
23712;SDS011;12035;49.978;8.298;2022-11-18T16:34:11;5.00;;;1.67;;
23712;SDS011;12035;49.978;8.298;2022-11-18T16:39:11;2.95;;;1.00;;
23712;SDS011;12035;49.978;8.298;2022-11-18T16:44:12;4.68;;;1.10;;
23712;SDS011;12035;49.978;8.298;2022-11-18T16:49:13;2.70;;;0.82;;
23712;SDS011;12035;49.978;8.298;2022-11-18T16:54:14;3.83;;;1.05;;
23712;SDS011;12035;49.978;8.298;2022-11-18T16:59:15;4.63;;;1.10;;
23712;SDS011;12035;49.978;8.298;2022-11-18T17:04:17;4.63;;;0.90;;
23712;SDS011;12035;49.978;8.298;2022-11-18T17:09:16;3.03;;;1.10;;
23712;SDS011;12035;49.978;8.298;2022-11-18T17:14:15;2.58;;;0.93;;
23712;SDS011;12035;49.978;8.298;2022-11-18T17:19:14;4.35;;;1.50;;
23712;SDS011;12035;49.978;8.298;2022-11-18T17:24:15;4.43;;;1.67;;
23712;SDS011;12035;49.978;8.298;2022-11-18T17:29:14;5.72;;;1.77;;
23712;SDS011;12035;49.978;8.298;2022-11-18T17:34:12;4.88;;;1.80;;
23712;SDS011;12035;49.978;8.298;2022-11-18T17:39:11;6.00;;;2.30;;
23712;SDS011;12035;49.978;8.298;2022-11-18T17:44:10;5.20;;;2.97;;
23712;SDS011;12035;49.978;8.298;2022-11-18T17:49:10;4.05;;;1.90;;
23712;SDS011;12035;49.978;8.298;2022-11-18T17:54:09;6.97;;;2.70;;
23712;SDS011;12035;49.978;8.298;2022-11-18T17:59:08;5.38;;;2.30;;
23712;SDS011;12035;49.978;8.298;2022-11-18T18:04:05;4.93;;;2.20;;
23712;SDS011;12035;49.978;8.298;2022-11-18T18:09:02;5.07;;;2.20;;
23712;SDS011;12035;49.978;8.298;2022-11-18T18:14:01;4.63;;;2.35;;
23712;SDS011;12035;49.978;8.298;2022-11-18T18:19:10;5.97;;;1.80;;
23712;SDS011;12035;49.978;8.298;2022-11-18T18:24:10;3.60;;;1.95;;
23712;SDS011;12035;49.978;8.298;2022-11-18T18:29:12;4.57;;;1.60;;
23712;SDS011;12035;49.978;8.298;2022-11-18T18:34:09;2.92;;;1.35;;
23712;SDS011;12035;49.978;8.298;2022-11-18T18:39:07;5.10;;;2.20;;
23712;SDS011;12035;49.978;8.298;2022-11-18T18:44:05;5.20;;;3.35;;
23712;SDS011;12035;49.978;8.298;2022-11-18T18:49:04;5.10;;;2.05;;
23712;SDS011;12035;49.978;8.298;2022-11-18T18:54:04;5.10;;;1.48;;
23712;SDS011;12035;49.978;8.298;2022-11-18T18:59:02;2.13;;;0.88;;
23712;SDS011;12035;49.978;8.298;2022-11-18T19:04:00;2.42;;;0.77;;
23712;SDS011;12035;49.978;8.298;2022-11-18T19:09:02;2.58;;;1.00;;
23712;SDS011;12035;49.978;8.298;2022-11-18T19:14:03;2.28;;;0.80;;
23712;SDS011;12035;49.978;8.298;2022-11-18T19:19:02;3.00;;;1.30;;
23712;SDS011;12035;49.978;8.298;2022-11-18T19:24:01;2.25;;;0.88;;
23712;SDS011;12035;49.978;8.298;2022-11-18T19:28:59;13.30;;;7.53;;
23712;SDS011;12035;49.978;8.298;2022-11-18T19:38:55;3.80;;;2.20;;
23712;SDS011;12035;49.978;8.298;2022-11-18T19:43:54;3.63;;;1.40;;
23712;SDS011;12035;49.978;8.298;2022-11-18T19:48:51;3.35;;;1.95;;
23712;SDS011;12035;49.978;8.298;2022-11-18T19:53:50;3.22;;;1.60;;
23712;SDS011;12035;49.978;8.298;2022-11-18T19:58:49;2.80;;;1.30;;
23712;SDS011;12035;49.978;8.298;2022-11-18T20:03:49;5.32;;;2.83;;
23712;SDS011;12035;49.978;8.298;2022-11-18T20:08:51;7.18;;;3.72;;
23712;SDS011;12035;49.978;8.298;2022-11-18T20:13:51;5.13;;;2.90;;
23712;SDS011;12035;49.978;8.298;2022-11-18T20:18:51;7.25;;;3.08;;
23712;SDS011;12035;49.978;8.298;2022-11-18T20:23:49;5.78;;;2.63;;
23712;SDS011;12035;49.978;8.298;2022-11-18T20:28:56;3.83;;;1.80;;
23712;SDS011;12035;49.978;8.298;2022-11-18T20:33:53;5.38;;;1.80;;
23712;SDS011;12035;49.978;8.298;2022-11-18T20:38:52;8.57;;;3.10;;
23712;SDS011;12035;49.978;8.298;2022-11-18T20:43:51;5.75;;;3.05;;
23712;SDS011;12035;49.978;8.298;2022-11-18T20:48:50;6.57;;;3.60;;
23712;SDS011;12035;49.978;8.298;2022-11-18T20:53:50;2.40;;;1.20;;
23712;SDS011;12035;49.978;8.298;2022-11-18T20:58:49;2.50;;;1.00;;
23712;SDS011;12035;49.978;8.298;2022-11-18T21:03:55;2.33;;;1.00;;
23712;SDS011;12035;49.978;8.298;2022-11-18T21:09:02;2.97;;;1.52;;
23712;SDS011;12035;49.978;8.298;2022-11-18T21:14:00;3.90;;;1.50;;
23712;SDS011;12035;49.978;8.298;2022-11-18T21:19:18;3.50;;;1.95;;
23712;SDS011;12035;49.978;8.298;2022-11-18T21:24:16;2.30;;;1.60;;
23712;SDS011;12035;49.978;8.298;2022-11-18T21:29:15;3.65;;;1.00;;
23712;SDS011;12035;49.978;8.298;2022-11-18T21:34:13;8.93;;;5.18;;
23712;SDS011;12035;49.978;8.298;2022-11-18T21:39:12;7.05;;;3.70;;
23712;SDS011;12035;49.978;8.298;2022-11-18T21:44:10;5.60;;;3.00;;
23712;SDS011;12035;49.978;8.298;2022-11-18T21:49:09;6.40;;;4.22;;
23712;SDS011;12035;49.978;8.298;2022-11-18T21:54:09;3.47;;;1.60;;
23712;SDS011;12035;49.978;8.298;2022-11-18T21:59:08;3.35;;;1.60;;
23712;SDS011;12035;49.978;8.298;2022-11-18T22:04:05;5.32;;;3.38;;
23712;SDS011;12035;49.978;8.298;2022-11-18T22:09:22;4.10;;;2.40;;
23712;SDS011;12035;49.978;8.298;2022-11-18T22:14:21;4.50;;;2.75;;
23712;SDS011;12035;49.978;8.298;2022-11-18T22:19:18;5.60;;;3.38;;
23712;SDS011;12035;49.978;8.298;2022-11-18T22:24:16;3.65;;;2.20;;
23712;SDS011;12035;49.978;8.298;2022-11-18T22:29:13;5.60;;;3.15;;
23712;SDS011;12035;49.978;8.298;2022-11-18T22:34:12;4.78;;;3.05;;
23712;SDS011;12035;49.978;8.298;2022-11-18T22:39:09;2.45;;;1.50;;
23712;SDS011;12035;49.978;8.298;2022-11-18T22:44:06;2.33;;;1.25;;
23712;SDS011;12035;49.978;8.298;2022-11-18T22:49:05;5.25;;;3.35;;
23712;SDS011;12035;49.978;8.298;2022-11-18T22:54:05;5.13;;;3.03;;
23712;SDS011;12035;49.978;8.298;2022-11-18T22:59:03;5.93;;;3.35;;
23712;SDS011;12035;49.978;8.298;2022-11-18T23:04:00;5.05;;;3.72;;
23712;SDS011;12035;49.978;8.298;2022-11-18T23:08:57;3.42;;;2.58;;
23712;SDS011;12035;49.978;8.298;2022-11-18T23:13:55;3.33;;;1.90;;
23712;SDS011;12035;49.978;8.298;2022-11-18T23:18:58;1.90;;;1.27;;
23712;SDS011;12035;49.978;8.298;2022-11-18T23:23:56;3.70;;;2.35;;
23712;SDS011;12035;49.978;8.298;2022-11-18T23:28:53;2.60;;;1.20;;
23712;SDS011;12035;49.978;8.298;2022-11-18T23:33:52;2.20;;;1.08;;
23712;SDS011;12035;49.978;8.298;2022-11-18T23:38:50;2.45;;;1.50;;
23712;SDS011;12035;49.978;8.298;2022-11-18T23:43:48;3.05;;;1.10;;
23712;SDS011;12035;49.978;8.298;2022-11-18T23:48:47;1.90;;;1.10;;
23712;SDS011;12035;49.978;8.298;2022-11-18T23:53:44;2.72;;;0.90;;
23712;SDS011;12035;49.978;8.298;2022-11-18T23:58:43;2.05;;;0.80;;
